createdAt,value
2023-05-12T00:00:21.664Z,99870.72
2023-05-12T00:03:10.340Z,99873.97
2023-05-12T00:06:03.566Z,99869.03
2023-05-12T00:08:52.255Z,99869.03
2023-05-12T00:11:40.869Z,99868.59
2023-05-12T00:14:29.341Z,99867.78
2023-05-12T00:17:17.993Z,99812.72
2023-05-12T00:20:08.027Z,99868.25
2023-05-12T00:22:59.214Z,99867.63
2023-05-12T00:25:48.115Z,99876.81
2023-05-12T00:28:36.704Z,99868.16
2023-05-12T00:31:25.289Z,99860.09
2023-05-12T00:34:13.810Z,99847.09
2023-05-12T00:37:02.286Z,99858.66
2023-05-12T00:39:52.305Z,99841.41
2023-05-12T00:42:40.805Z,99858.28
2023-05-12T00:45:30.328Z,99850.88
2023-05-12T00:48:18.952Z,99797.66
2023-05-12T00:51:07.896Z,99852.00
2023-05-12T00:53:57.478Z,99847.47
2023-05-12T00:56:47.671Z,99848.88
2023-05-12T00:59:36.307Z,99846.19
2023-05-12T01:02:24.926Z,99846.78
2023-05-12T01:05:13.585Z,99796.25
2023-05-12T01:08:02.860Z,99849.00
2023-05-12T01:10:51.622Z,99845.00
2023-05-12T01:13:42.149Z,99847.47
2023-05-12T01:16:37.117Z,99835.47
2023-05-12T01:19:42.554Z,99844.59
2023-05-12T01:22:32.230Z,99844.53
2023-05-12T01:25:22.917Z,99844.16
2023-05-12T01:28:12.911Z,99832.88
2023-05-12T01:31:02.150Z,99840.84
2023-05-12T01:33:50.812Z,99846.84
2023-05-12T01:36:39.359Z,99838.38
2023-05-12T01:39:27.820Z,99839.84
2023-05-12T01:42:16.254Z,99843.09
2023-05-12T01:45:06.941Z,99846.63
2023-05-12T01:47:55.552Z,99842.31
2023-05-12T01:50:44.120Z,99844.16
2023-05-12T01:53:32.600Z,99847.50
2023-05-12T01:56:21.746Z,99851.47
2023-05-12T01:59:10.372Z,99845.13
2023-05-12T02:02:00.378Z,99847.34
2023-05-12T02:04:48.867Z,99848.41
2023-05-12T02:07:37.662Z,99833.53
2023-05-12T02:10:26.151Z,99845.25
2023-05-12T02:13:15.262Z,99849.00
2023-05-12T02:16:04.148Z,99848.41
2023-05-12T02:18:54.316Z,99847.91
2023-05-12T02:21:42.829Z,99846.84
2023-05-12T02:24:31.419Z,99843.31
2023-05-12T02:27:19.928Z,99835.69
2023-05-12T02:30:09.589Z,99844.16
2023-05-12T02:32:58.100Z,99844.38
2023-05-12T02:35:48.349Z,99843.53
2023-05-12T02:38:36.820Z,99824.63
2023-05-12T02:41:25.410Z,99841.06
2023-05-12T02:44:13.860Z,99839.22
2023-05-12T02:47:02.362Z,99823.97
2023-05-12T02:49:50.994Z,99832.78
2023-05-12T02:52:40.865Z,99832.78
2023-05-12T02:55:30.097Z,99810.59
2023-05-12T02:58:18.568Z,99833.84
2023-05-12T03:01:11.097Z,99836.75
2023-05-12T03:04:00.248Z,99836.59
2023-05-12T03:06:49.470Z,99846.91
2023-05-12T03:09:39.283Z,99845.88
2023-05-12T03:12:29.325Z,99839.66
2023-05-12T03:15:18.056Z,99838.03
2023-05-12T03:18:06.718Z,99819.69
2023-05-12T03:20:55.355Z,99846.53
2023-05-12T03:23:43.841Z,99834.19
2023-05-12T03:26:33.665Z,99846.81
2023-05-12T03:29:22.316Z,99848.13
2023-05-12T03:32:10.783Z,99847.91
2023-05-12T03:34:59.239Z,99841.97
2023-05-12T03:37:47.719Z,99836.19
2023-05-12T03:40:36.731Z,99840.91
2023-05-12T03:43:26.532Z,99835.31
2023-05-12T03:46:15.033Z,99842.09
2023-05-12T03:49:03.617Z,99840.03
2023-05-12T03:51:52.094Z,99838.59
2023-05-12T03:54:40.924Z,99840.25
2023-05-12T03:57:29.383Z,99835.75
2023-05-12T04:00:20.486Z,99839.63
2023-05-12T04:03:09.175Z,99822.00
2023-05-12T04:06:00.976Z,99839.06
2023-05-12T04:08:49.445Z,99839.50
2023-05-12T04:11:38.010Z,99848.56
2023-05-12T04:14:35.297Z,99849.84
2023-05-12T04:17:31.956Z,99846.72
2023-05-12T04:20:20.668Z,99840.97
2023-05-12T04:23:09.711Z,99848.22
2023-05-12T04:25:58.836Z,99844.91
2023-05-12T04:28:47.715Z,99849.50
2023-05-12T04:31:36.356Z,99849.72
2023-05-12T04:34:26.240Z,99849.94
2023-05-12T04:37:14.689Z,99852.22
2023-05-12T04:40:03.202Z,99847.47
2023-05-12T04:42:51.771Z,99847.69
2023-05-12T04:45:40.357Z,99851.78
2023-05-12T04:48:29.258Z,99855.53
2023-05-12T04:51:19.105Z,99847.25
2023-05-12T04:54:07.627Z,99860.69
2023-05-12T04:56:56.132Z,99857.78
2023-05-12T04:59:44.605Z,99863.16
2023-05-12T05:02:33.071Z,99860.28
2023-05-12T05:05:21.774Z,99860.47
2023-05-12T05:08:12.064Z,99868.53
2023-05-12T05:11:00.550Z,99868.88
2023-05-12T05:13:49.065Z,99878.22
2023-05-12T05:16:37.567Z,99880.03
2023-05-12T05:19:39.192Z,99874.38
2023-05-12T05:22:34.405Z,99873.50
2023-05-12T05:25:24.208Z,99879.88
2023-05-12T05:28:12.706Z,99876.47
2023-05-12T05:31:01.284Z,99877.09
2023-05-12T05:33:50.178Z,99874.56
2023-05-12T05:36:39.180Z,99876.53
2023-05-12T05:39:30.681Z,99883.84
2023-05-12T05:42:20.570Z,99885.41
2023-05-12T05:45:10.152Z,99890.59
2023-05-12T05:47:59.009Z,99887.06
2023-05-12T05:50:47.596Z,99879.88
2023-05-12T05:53:36.024Z,99883.97
2023-05-12T05:56:24.670Z,99892.88
2023-05-12T05:59:14.523Z,99891.59
2023-05-12T06:02:03.759Z,99890.72
2023-05-12T06:04:52.470Z,99885.72
2023-05-12T06:07:41.155Z,99881.31
2023-05-12T06:10:29.719Z,99896.06
2023-05-12T06:13:18.443Z,99895.22
2023-05-12T06:16:08.445Z,99906.19
2023-05-12T06:18:56.965Z,99896.84
2023-05-12T06:21:45.437Z,99909.00
2023-05-12T06:24:34.170Z,99908.13
2023-05-12T06:27:22.894Z,99906.75
2023-05-12T06:30:14.973Z,99909.59
2023-05-12T06:33:05.916Z,99921.56
2023-05-12T06:35:54.495Z,99914.94
2023-05-12T06:38:42.991Z,99915.56
2023-05-12T06:41:32.270Z,99925.44
2023-05-12T06:44:20.828Z,99919.94
2023-05-12T06:47:09.413Z,99923.34
2023-05-12T06:49:59.613Z,99914.94
2023-05-12T06:52:48.443Z,99921.81
2023-05-12T06:55:36.972Z,99919.84
2023-05-12T06:58:25.542Z,99931.06
2023-05-12T07:01:14.314Z,99928.22
2023-05-12T07:04:02.811Z,99931.13
2023-05-12T07:06:52.681Z,99927.88
2023-05-12T07:09:42.412Z,99936.94
2023-05-12T07:12:32.137Z,99928.88
2023-05-12T07:15:20.965Z,99930.78
2023-05-12T07:18:09.752Z,99931.13
2023-05-12T07:20:58.318Z,99931.44
2023-05-12T07:23:48.138Z,99937.44
2023-05-12T07:26:36.732Z,99936.97
2023-05-12T07:29:25.250Z,99934.66
2023-05-12T07:32:13.917Z,99930.97
2023-05-12T07:35:03.629Z,99930.03
2023-05-12T07:37:52.207Z,99926.78
2023-05-12T07:40:43.046Z,99930.97
2023-05-12T07:43:31.515Z,99917.25
2023-05-12T07:46:20.051Z,99924.06
2023-05-12T07:49:08.646Z,99897.19
2023-05-12T07:51:57.106Z,99928.63
2023-05-12T07:54:45.611Z,99931.56
2023-05-12T07:57:35.399Z,99919.34
2023-05-12T08:00:24.246Z,99933.53
2023-05-12T08:03:13.175Z,99835.00
2023-05-12T08:06:03.507Z,99931.81
2023-05-12T08:08:52.295Z,99928.75
2023-05-12T08:11:40.741Z,99926.41
2023-05-12T08:14:30.624Z,99909.47
2023-05-12T08:17:19.438Z,99916.50
2023-05-12T08:20:09.656Z,99919.22
2023-05-12T08:22:58.143Z,99926.50
2023-05-12T08:25:48.400Z,99924.28
2023-05-12T08:28:36.870Z,99919.56
2023-05-12T08:31:26.852Z,99926.34
2023-05-12T08:34:15.463Z,99930.16
2023-05-12T08:37:04.051Z,99916.81
2023-05-12T08:39:52.873Z,99916.88
2023-05-12T08:42:44.388Z,99933.53
2023-05-12T08:45:34.053Z,99934.72
2023-05-12T08:48:26.748Z,99889.22
2023-05-12T08:51:15.830Z,99937.53
2023-05-12T08:54:05.137Z,99912.16
2023-05-12T08:59:45.480Z,99942.59
2023-05-12T09:02:48.299Z,99941.63
2023-05-12T09:05:42.919Z,99946.09
2023-05-12T09:08:33.058Z,99864.94
2023-05-12T09:11:22.557Z,99945.16
2023-05-12T09:14:15.820Z,99944.69
2023-05-12T09:17:05.728Z,99949.97
2023-05-12T09:19:54.345Z,99940.22
2023-05-12T09:22:44.266Z,99931.31
2023-05-12T09:25:32.945Z,99948.25
2023-05-12T09:28:21.500Z,99941.06
2023-05-12T09:31:17.372Z,99939.09
2023-05-12T09:34:11.201Z,99941.19
2023-05-12T09:37:01.080Z,99938.13
2023-05-12T09:40:00.515Z,99897.22
2023-05-12T09:42:49.003Z,99950.31
2023-05-12T09:45:38.904Z,99946.78
2023-05-12T09:48:27.665Z,99942.16
2023-05-12T09:51:18.296Z,99944.25
2023-05-12T09:54:07.976Z,99951.78
2023-05-12T09:57:03.671Z,99946.38
2023-05-12T09:59:53.136Z,99950.84
2023-05-12T10:02:42.781Z,99951.41
2023-05-12T10:05:32.070Z,99957.41
2023-05-12T10:08:22.383Z,99918.56
2023-05-12T10:11:10.845Z,99938.44
2023-05-12T10:14:00.847Z,99950.09
2023-05-12T10:16:51.084Z,99916.53
2023-05-12T10:19:41.087Z,99951.28
2023-05-12T10:22:30.156Z,99932.75
2023-05-12T10:25:19.570Z,99941.44
2023-05-12T10:28:08.439Z,99947.53
2023-05-12T10:30:59.077Z,99944.34
2023-05-12T10:33:57.739Z,99948.94
2023-05-12T10:36:47.906Z,99947.28
2023-05-12T10:39:36.965Z,99939.75
2023-05-12T10:42:26.443Z,99939.00
2023-05-12T10:45:19.388Z,99937.16
2023-05-12T10:48:10.054Z,99941.38
2023-05-12T10:50:58.686Z,99935.25
2023-05-12T10:53:50.073Z,99930.97
2023-05-12T10:56:45.396Z,99939.50
2023-05-12T10:59:34.350Z,99937.31
2023-05-12T11:02:27.527Z,99933.94
2023-05-12T11:05:18.554Z,99934.25
2023-05-12T11:08:07.711Z,99929.03
2023-05-12T11:10:56.544Z,99931.25
2023-05-12T11:13:46.631Z,99934.25
2023-05-12T11:16:35.286Z,99934.56
2023-05-12T11:19:23.796Z,99941.16
2023-05-12T11:22:13.701Z,99943.94
2023-05-12T11:25:10.301Z,99948.75
2023-05-12T11:27:59.123Z,99947.56
2023-05-12T11:30:55.482Z,99949.22
2023-05-12T11:33:44.278Z,99946.75
2023-05-12T11:36:38.094Z,99956.44
2023-05-12T11:39:31.026Z,99949.28
2023-05-12T11:42:22.806Z,99950.66
2023-05-12T11:45:22.283Z,99902.34
2023-05-12T11:48:12.749Z,99945.06
2023-05-12T11:51:01.798Z,99941.47
2023-05-12T11:53:50.277Z,99943.22
2023-05-12T11:56:40.340Z,99947.84
2023-05-12T11:59:30.723Z,99950.34
2023-05-12T12:02:22.114Z,99945.22
2023-05-12T12:05:17.924Z,99953.84
2023-05-12T12:08:12.491Z,99954.00
2023-05-12T12:11:03.412Z,99947.09
2023-05-12T12:13:57.388Z,99949.78
2023-05-12T12:16:45.887Z,99951.66
2023-05-12T12:19:34.438Z,99950.13
2023-05-12T12:22:23.427Z,99956.19
2023-05-12T12:25:12.133Z,99944.84
2023-05-12T12:28:00.684Z,99951.31
2023-05-12T12:30:50.547Z,99962.69
2023-05-12T12:33:39.314Z,99959.00
2023-05-12T12:36:27.985Z,99956.19
2023-05-12T12:39:19.082Z,99952.81
2023-05-12T12:42:08.480Z,99957.66
2023-05-12T12:44:56.964Z,99960.91
2023-05-12T12:47:52.185Z,99967.28
2023-05-12T12:50:40.782Z,99967.03
2023-05-12T12:53:29.308Z,99965.94
2023-05-12T12:56:18.178Z,99931.28
2023-05-12T12:59:06.668Z,99959.97
2023-05-12T13:01:55.257Z,99961.91
2023-05-12T13:04:45.403Z,99963.72
2023-05-12T13:07:34.495Z,99968.03
2023-05-12T13:10:23.265Z,99972.88
2023-05-12T13:13:12.067Z,99916.00
2023-05-12T13:16:00.647Z,99973.72
2023-05-12T13:18:49.150Z,99972.09
2023-05-12T13:21:39.038Z,99972.09
2023-05-12T13:24:27.586Z,99964.72
2023-05-12T13:27:16.318Z,99958.81
2023-05-12T13:30:07.264Z,99962.53
2023-05-12T13:32:55.808Z,99967.38
2023-05-12T13:35:44.331Z,99964.28
2023-05-12T13:38:34.579Z,99968.13
2023-05-12T13:41:23.089Z,99970.09
2023-05-12T13:44:11.576Z,99935.53
2023-05-12T13:47:00.175Z,99956.75
2023-05-12T13:49:48.619Z,99959.69
2023-05-12T13:52:37.455Z,99964.88
2023-05-12T13:55:27.521Z,99954.06
2023-05-12T13:58:16.432Z,99947.44
2023-05-12T14:01:07.352Z,99947.28
2023-05-12T14:03:57.168Z,99946.94
2023-05-12T14:06:45.815Z,99949.41
2023-05-12T14:09:34.288Z,99960.28
2023-05-12T14:12:24.162Z,99965.66
2023-05-12T14:15:26.521Z,99956.25
2023-05-12T14:18:21.607Z,99962.94
2023-05-12T14:21:10.196Z,99958.63
2023-05-12T14:23:58.721Z,99968.38
2023-05-12T14:26:47.282Z,99970.69
2023-05-12T14:29:37.127Z,99973.63
2023-05-12T14:32:25.693Z,99972.50
2023-05-12T14:35:14.343Z,99972.75
2023-05-12T14:38:02.778Z,99967.75
2023-05-12T14:40:51.377Z,99973.63
2023-05-12T14:43:39.871Z,99974.31
2023-05-12T14:46:29.692Z,99967.34
2023-05-12T14:49:21.073Z,99973.25
2023-05-12T14:52:09.584Z,99971.94
2023-05-12T14:54:58.122Z,99978.16
2023-05-12T14:57:47.242Z,99971.94
2023-05-12T15:00:36.295Z,99975.69
2023-05-12T15:03:26.466Z,99981.75
2023-05-12T15:06:16.605Z,99989.63
2023-05-12T15:09:05.146Z,99974.88
2023-05-12T15:11:53.638Z,99981.66
2023-05-12T15:14:42.119Z,99986.19
2023-05-12T15:17:30.724Z,99993.22
2023-05-12T15:20:20.937Z,99991.44
2023-05-12T15:23:09.668Z,99991.94
2023-05-12T15:25:59.513Z,99987.16
2023-05-12T15:28:51.870Z,99986.34
2023-05-12T15:31:40.386Z,99972.97
2023-05-12T15:34:28.876Z,99989.03
2023-05-12T15:37:18.759Z,99990.19
2023-05-12T15:40:08.743Z,99994.38
2023-05-12T15:42:57.223Z,99991.19
2023-05-12T15:45:45.784Z,99992.16
2023-05-12T15:48:34.815Z,99995.06
2023-05-12T15:51:23.245Z,99984.13
2023-05-12T15:54:13.124Z,99983.19
2023-05-12T15:57:01.705Z,99983.13
2023-05-12T15:59:51.441Z,99988.97
2023-05-12T16:02:40.609Z,99992.75
2023-05-12T16:05:29.261Z,99987.72
2023-05-12T16:08:17.772Z,99996.75
2023-05-12T16:11:07.737Z,99969.75
2023-05-12T16:13:57.088Z,99987.72
2023-05-12T16:16:48.305Z,99977.56
2023-05-12T16:19:37.115Z,99989.34
2023-05-12T16:22:25.841Z,99987.97
2023-05-12T16:25:14.327Z,99983.22
2023-05-12T16:28:04.290Z,99990.28
2023-05-12T16:30:52.720Z,99989.47
2023-05-12T16:33:41.169Z,99983.13
2023-05-12T16:36:29.828Z,99981.59
2023-05-12T16:39:18.392Z,99993.22
2023-05-12T16:42:07.555Z,99983.66
2023-05-12T16:44:57.898Z,99987.75
2023-05-12T16:47:46.413Z,99984.38
2023-05-12T16:50:35.121Z,99951.50
2023-05-12T16:53:23.638Z,99979.25
2023-05-12T16:56:12.929Z,99983.81
2023-05-12T16:59:01.467Z,99986.81
2023-05-12T17:01:51.665Z,99984.59
2023-05-12T17:04:40.285Z,99987.81
2023-05-12T17:07:28.917Z,99920.50
2023-05-12T17:10:17.795Z,99989.38
2023-05-12T17:13:06.580Z,99993.16
2023-05-12T17:15:55.089Z,99987.56
2023-05-12T17:21:37.264Z,100009.28
2023-05-12T17:24:25.967Z,100004.84
2023-05-12T17:27:14.450Z,100002.34
2023-05-12T17:30:04.490Z,100016.63
2023-05-12T17:32:53.597Z,100015.22
2023-05-12T17:35:47.504Z,99981.13
2023-05-12T17:38:43.526Z,100016.00
2023-05-12T17:41:32.499Z,99986.19
2023-05-12T17:44:21.571Z,99977.41
2023-05-12T17:47:13.784Z,100017.09
2023-05-12T17:50:02.670Z,100024.50
2023-05-12T17:52:54.927Z,100016.53
2023-05-12T17:55:43.429Z,100021.38
2023-05-12T17:58:31.868Z,100010.56
2023-05-12T18:01:20.533Z,100022.53
2023-05-12T18:04:09.185Z,100025.69
2023-05-12T18:06:59.324Z,100011.97
2023-05-12T18:09:49.160Z,100028.78
2023-05-12T18:12:37.901Z,100028.66
2023-05-12T18:15:28.621Z,100038.63
2023-05-12T18:18:17.473Z,100040.41
2023-05-12T18:21:06.401Z,100024.44
2023-05-12T18:23:55.045Z,100043.81
2023-05-12T18:26:44.860Z,100027.25
2023-05-12T18:29:33.601Z,100036.53
2023-05-12T18:32:23.254Z,100045.69
2023-05-12T18:35:13.070Z,100045.09
2023-05-12T18:38:01.573Z,100036.84
2023-05-12T18:40:50.051Z,100047.66
2023-05-12T18:43:39.893Z,100049.78
2023-05-12T18:46:28.688Z,100044.84
2023-05-12T18:49:17.465Z,100042.00
2023-05-12T18:52:06.313Z,100058.44
2023-05-12T18:54:54.800Z,100049.78
2023-05-12T18:57:43.246Z,100056.13
2023-05-12T19:00:34.656Z,100061.75
2023-05-12T19:03:23.117Z,100064.69
2023-05-12T19:06:11.659Z,100073.72
2023-05-12T19:09:00.140Z,100065.84
2023-05-12T19:11:48.575Z,100074.06
2023-05-12T19:14:37.767Z,100076.53
2023-05-12T19:17:28.274Z,100087.34
2023-05-12T19:20:16.896Z,100089.44
2023-05-12T19:23:05.625Z,100093.28
2023-05-12T19:25:54.758Z,100088.00
2023-05-12T19:28:43.273Z,100095.28
2023-05-12T19:31:31.822Z,100091.25
2023-05-12T19:34:21.867Z,100104.66
2023-05-12T19:37:10.518Z,100099.44
2023-05-12T19:39:59.290Z,100098.41
2023-05-12T19:42:47.748Z,100105.88
2023-05-12T19:45:36.418Z,100106.94
2023-05-12T19:48:24.880Z,100101.63
2023-05-12T19:51:14.817Z,100113.50
2023-05-12T19:54:06.313Z,100113.22
2023-05-12T19:56:54.934Z,100119.34
2023-05-12T19:59:43.406Z,100116.72
2023-05-12T20:02:32.744Z,100111.16
2023-05-12T20:05:21.452Z,100009.31
2023-05-12T20:08:11.373Z,100133.66
2023-05-12T20:11:00.039Z,100134.25
2023-05-12T20:13:48.558Z,100103.94
2023-05-12T20:16:38.190Z,100143.31
2023-05-12T20:19:27.755Z,100108.34
2023-05-12T20:22:16.649Z,100139.50
2023-05-12T20:25:07.559Z,100114.41
2023-05-12T20:27:56.341Z,100144.38
2023-05-12T20:30:44.867Z,100142.44
2023-05-12T20:33:33.408Z,100136.06
2023-05-12T20:36:22.454Z,100144.44
2023-05-12T20:39:11.119Z,100145.13
2023-05-12T20:42:01.036Z,100142.78
2023-05-12T20:44:50.027Z,100146.75
2023-05-12T20:47:38.701Z,100147.91
2023-05-12T20:50:27.868Z,100141.75
2023-05-12T20:53:16.456Z,100135.91
2023-05-12T20:56:05.066Z,100149.97
2023-05-12T20:58:55.164Z,100147.81
2023-05-12T21:01:43.789Z,100151.38
2023-05-12T21:04:32.360Z,100148.34
2023-05-12T21:07:21.289Z,100146.16
2023-05-12T21:10:10.443Z,100139.63
2023-05-12T21:12:59.055Z,100147.34
2023-05-12T21:15:48.925Z,100153.94
2023-05-12T21:18:37.961Z,100152.66
2023-05-12T21:21:26.456Z,100158.78
2023-05-12T21:24:15.015Z,100157.38
2023-05-12T21:27:03.728Z,100153.97
2023-05-12T21:29:52.252Z,100162.16
2023-05-12T21:32:42.438Z,100161.00
2023-05-12T21:35:30.980Z,100170.44
2023-05-12T21:38:20.723Z,100168.31
2023-05-12T21:41:09.326Z,100150.22
2023-05-12T21:43:57.855Z,100168.53
2023-05-12T21:46:46.451Z,100163.47
2023-05-12T21:49:36.361Z,100171.22
2023-05-12T21:52:25.204Z,100177.66
2023-05-12T21:55:14.867Z,100167.13
2023-05-12T21:58:03.418Z,100176.41
2023-05-12T22:00:52.322Z,100149.56
2023-05-12T22:03:41.728Z,100183.75
2023-05-12T22:06:32.166Z,100186.63
2023-05-12T22:09:21.790Z,100180.03
2023-05-12T22:12:15.160Z,100174.63
2023-05-12T22:15:04.407Z,100179.25
2023-05-12T22:17:53.270Z,100185.00
2023-05-12T22:20:42.138Z,100179.38
2023-05-12T22:23:31.967Z,100174.53
2023-05-12T22:26:20.539Z,100188.38
2023-05-12T22:29:09.059Z,100155.78
2023-05-12T22:31:57.614Z,100185.25
2023-05-12T22:34:46.059Z,100185.63
2023-05-12T22:37:34.955Z,100192.22
2023-05-12T22:40:26.956Z,100192.84
2023-05-12T22:43:15.471Z,100196.28
2023-05-12T22:46:05.879Z,100193.59
2023-05-12T22:48:54.399Z,100193.38
2023-05-12T22:51:42.947Z,100187.16
2023-05-12T22:54:31.475Z,100173.75
2023-05-12T22:57:21.439Z,100184.84
2023-05-12T23:00:11.577Z,100136.59
2023-05-12T23:03:00.497Z,100190.00
2023-05-12T23:05:49.058Z,100165.94
2023-05-12T23:08:37.535Z,100194.22
2023-05-12T23:11:26.274Z,100174.56
2023-05-12T23:14:16.091Z,100181.22
2023-05-12T23:17:04.645Z,100181.00
2023-05-12T23:19:53.491Z,100177.56
2023-05-12T23:22:42.056Z,100181.22
2023-05-12T23:25:30.632Z,100184.81
2023-05-12T23:28:19.113Z,100177.38
2023-05-12T23:31:08.920Z,100178.47
2023-05-12T23:33:57.421Z,100173.38
2023-05-12T23:36:45.924Z,100159.19
2023-05-12T23:39:34.397Z,100175.97
2023-05-12T23:42:23.038Z,100180.09
2023-05-12T23:45:12.379Z,100169.59
2023-05-12T23:48:02.238Z,100165.72
2023-05-12T23:50:50.896Z,100169.47
2023-05-12T23:53:39.346Z,100169.13
2023-05-12T23:56:27.846Z,100103.56
2023-05-12T23:59:16.466Z,100165.25
